sensor_id;sensor_type;location;lat;lon;timestamp;temperature;humidity
44271;DHT22;29963;44.594;11.368;2022-08-21T00:01:06;26.70;99.90
44271;DHT22;29963;44.594;11.368;2022-08-21T00:03:35;26.70;99.90
44271;DHT22;29963;44.594;11.368;2022-08-21T00:06:01;26.60;99.90
44271;DHT22;29963;44.594;11.368;2022-08-21T00:08:27;26.60;99.90
44271;DHT22;29963;44.594;11.368;2022-08-21T00:10:53;26.70;99.90
44271;DHT22;29963;44.594;11.368;2022-08-21T00:13:20;26.60;99.90
44271;DHT22;29963;44.594;11.368;2022-08-21T00:15:46;26.60;99.90
44271;DHT22;29963;44.594;11.368;2022-08-21T00:18:12;26.60;99.90
44271;DHT22;29963;44.594;11.368;2022-08-21T00:20:39;26.60;99.90
44271;DHT22;29963;44.594;11.368;2022-08-21T00:23:05;26.40;99.90
44271;DHT22;29963;44.594;11.368;2022-08-21T00:25:32;26.40;99.90
44271;DHT22;29963;44.594;11.368;2022-08-21T00:27:58;26.40;99.90
44271;DHT22;29963;44.594;11.368;2022-08-21T00:30:26;26.30;99.90
44271;DHT22;29963;44.594;11.368;2022-08-21T00:32:53;26.30;99.90
44271;DHT22;29963;44.594;11.368;2022-08-21T00:35:27;26.20;99.90
44271;DHT22;29963;44.594;11.368;2022-08-21T00:37:54;26.30;99.90
44271;DHT22;29963;44.594;11.368;2022-08-21T00:40:25;26.20;99.90
44271;DHT22;29963;44.594;11.368;2022-08-21T00:42:51;26.10;99.90
44271;DHT22;29963;44.594;11.368;2022-08-21T00:45:17;26.00;99.90
44271;DHT22;29963;44.594;11.368;2022-08-21T00:47:43;25.80;99.90
44271;DHT22;29963;44.594;11.368;2022-08-21T00:50:10;25.50;99.90
44271;DHT22;29963;44.594;11.368;2022-08-21T00:52:36;25.30;99.90
44271;DHT22;29963;44.594;11.368;2022-08-21T00:55:05;25.10;99.90
44271;DHT22;29963;44.594;11.368;2022-08-21T00:57:38;25.00;99.90
44271;DHT22;29963;44.594;11.368;2022-08-21T01:00:09;24.90;99.90
44271;DHT22;29963;44.594;11.368;2022-08-21T01:02:35;24.90;99.90
44271;DHT22;29963;44.594;11.368;2022-08-21T01:05:01;24.80;99.90
44271;DHT22;29963;44.594;11.368;2022-08-21T01:07:27;24.60;99.90
44271;DHT22;29963;44.594;11.368;2022-08-21T01:09:53;24.60;99.90
44271;DHT22;29963;44.594;11.368;2022-08-21T01:12:19;24.50;99.90
44271;DHT22;29963;44.594;11.368;2022-08-21T01:14:44;24.40;99.90
44271;DHT22;29963;44.594;11.368;2022-08-21T01:17:12;24.40;99.90
44271;DHT22;29963;44.594;11.368;2022-08-21T01:19:39;24.30;99.90
44271;DHT22;29963;44.594;11.368;2022-08-21T01:22:05;24.30;99.90
44271;DHT22;29963;44.594;11.368;2022-08-21T01:24:30;24.30;99.90
44271;DHT22;29963;44.594;11.368;2022-08-21T01:27:00;24.20;99.90
44271;DHT22;29963;44.594;11.368;2022-08-21T01:32:17;24.20;99.90
44271;DHT22;29963;44.594;11.368;2022-08-21T01:34:46;24.30;99.90
44271;DHT22;29963;44.594;11.368;2022-08-21T01:37:13;24.30;99.90
44271;DHT22;29963;44.594;11.368;2022-08-21T01:39:40;24.20;99.90
44271;DHT22;29963;44.594;11.368;2022-08-21T01:42:06;24.00;99.90
44271;DHT22;29963;44.594;11.368;2022-08-21T01:44:32;24.00;99.90
44271;DHT22;29963;44.594;11.368;2022-08-21T01:46:59;24.00;99.90
44271;DHT22;29963;44.594;11.368;2022-08-21T01:49:26;24.00;99.90
44271;DHT22;29963;44.594;11.368;2022-08-21T01:51:52;24.00;99.90
44271;DHT22;29963;44.594;11.368;2022-08-21T01:54:18;24.00;99.90
44271;DHT22;29963;44.594;11.368;2022-08-21T01:56:47;23.90;99.90
44271;DHT22;29963;44.594;11.368;2022-08-21T01:59:14;23.80;99.90
44271;DHT22;29963;44.594;11.368;2022-08-21T02:01:39;23.80;99.90
44271;DHT22;29963;44.594;11.368;2022-08-21T02:04:07;23.80;99.90
44271;DHT22;29963;44.594;11.368;2022-08-21T02:06:33;23.80;99.90
44271;DHT22;29963;44.594;11.368;2022-08-21T02:09:00;23.80;99.90
44271;DHT22;29963;44.594;11.368;2022-08-21T02:11:26;23.70;99.90
44271;DHT22;29963;44.594;11.368;2022-08-21T02:13:52;23.70;99.90
44271;DHT22;29963;44.594;11.368;2022-08-21T02:16:17;23.70;99.90
44271;DHT22;29963;44.594;11.368;2022-08-21T02:18:43;23.60;99.90
44271;DHT22;29963;44.594;11.368;2022-08-21T02:21:09;23.50;99.90
44271;DHT22;29963;44.594;11.368;2022-08-21T02:23:35;23.50;99.90
44271;DHT22;29963;44.594;11.368;2022-08-21T02:26:03;23.40;99.90
44271;DHT22;29963;44.594;11.368;2022-08-21T02:28:32;23.40;99.90
44271;DHT22;29963;44.594;11.368;2022-08-21T02:30:58;23.40;99.90
44271;DHT22;29963;44.594;11.368;2022-08-21T02:33:24;23.40;99.90
44271;DHT22;29963;44.594;11.368;2022-08-21T02:35:50;23.30;99.90
44271;DHT22;29963;44.594;11.368;2022-08-21T02:38:20;23.20;99.90
44271;DHT22;29963;44.594;11.368;2022-08-21T02:40:48;23.10;99.90
44271;DHT22;29963;44.594;11.368;2022-08-21T02:43:15;23.10;99.90
44271;DHT22;29963;44.594;11.368;2022-08-21T02:45:41;23.10;99.90
44271;DHT22;29963;44.594;11.368;2022-08-21T02:48:10;23.10;99.90
44271;DHT22;29963;44.594;11.368;2022-08-21T02:50:43;23.20;99.90
44271;DHT22;29963;44.594;11.368;2022-08-21T02:53:11;23.10;99.90
44271;DHT22;29963;44.594;11.368;2022-08-21T02:55:38;23.10;99.90
44271;DHT22;29963;44.594;11.368;2022-08-21T02:58:05;23.10;99.90
44271;DHT22;29963;44.594;11.368;2022-08-21T03:00:32;23.00;99.90
44271;DHT22;29963;44.594;11.368;2022-08-21T03:02:59;23.00;99.90
44271;DHT22;29963;44.594;11.368;2022-08-21T03:05:26;23.00;99.90
44271;DHT22;29963;44.594;11.368;2022-08-21T03:07:52;23.10;99.90
44271;DHT22;29963;44.594;11.368;2022-08-21T03:10:20;23.10;99.90
44271;DHT22;29963;44.594;11.368;2022-08-21T03:12:46;23.20;99.90
44271;DHT22;29963;44.594;11.368;2022-08-21T03:15:15;23.20;99.90
44271;DHT22;29963;44.594;11.368;2022-08-21T03:17:41;23.20;99.90
44271;DHT22;29963;44.594;11.368;2022-08-21T03:20:08;23.20;99.90
44271;DHT22;29963;44.594;11.368;2022-08-21T03:22:34;23.10;99.90
44271;DHT22;29963;44.594;11.368;2022-08-21T03:24:59;23.00;99.90
44271;DHT22;29963;44.594;11.368;2022-08-21T03:27:27;22.90;99.90
44271;DHT22;29963;44.594;11.368;2022-08-21T03:29:54;22.90;99.90
44271;DHT22;29963;44.594;11.368;2022-08-21T03:32:21;22.80;99.90
44271;DHT22;29963;44.594;11.368;2022-08-21T03:34:47;22.70;99.90
44271;DHT22;29963;44.594;11.368;2022-08-21T03:37:14;22.80;99.90
44271;DHT22;29963;44.594;11.368;2022-08-21T03:39:40;22.80;99.90
44271;DHT22;29963;44.594;11.368;2022-08-21T03:42:08;22.80;99.90
44271;DHT22;29963;44.594;11.368;2022-08-21T03:44:34;22.80;99.90
44271;DHT22;29963;44.594;11.368;2022-08-21T03:47:00;22.90;99.90
44271;DHT22;29963;44.594;11.368;2022-08-21T03:49:27;22.80;99.90
44271;DHT22;29963;44.594;11.368;2022-08-21T03:51:55;22.80;99.90
44271;DHT22;29963;44.594;11.368;2022-08-21T03:54:21;22.80;99.90
44271;DHT22;29963;44.594;11.368;2022-08-21T03:56:47;22.90;99.90
44271;DHT22;29963;44.594;11.368;2022-08-21T03:59:13;22.90;99.90
44271;DHT22;29963;44.594;11.368;2022-08-21T04:01:39;23.00;99.90
44271;DHT22;29963;44.594;11.368;2022-08-21T04:04:05;23.00;99.90
44271;DHT22;29963;44.594;11.368;2022-08-21T04:06:31;22.90;99.90
44271;DHT22;29963;44.594;11.368;2022-08-21T04:08:57;22.90;99.90
44271;DHT22;29963;44.594;11.368;2022-08-21T04:11:23;22.80;99.90
44271;DHT22;29963;44.594;11.368;2022-08-21T04:13:49;22.80;99.90
44271;DHT22;29963;44.594;11.368;2022-08-21T04:16:15;22.80;99.90
44271;DHT22;29963;44.594;11.368;2022-08-21T04:18:41;22.80;99.90
44271;DHT22;29963;44.594;11.368;2022-08-21T04:21:09;22.80;99.90
44271;DHT22;29963;44.594;11.368;2022-08-21T04:23:36;22.90;99.90
44271;DHT22;29963;44.594;11.368;2022-08-21T04:26:01;23.00;99.90
44271;DHT22;29963;44.594;11.368;2022-08-21T04:28:27;22.90;99.90
44271;DHT22;29963;44.594;11.368;2022-08-21T04:30:54;22.90;99.90
44271;DHT22;29963;44.594;11.368;2022-08-21T04:33:21;22.90;99.90
44271;DHT22;29963;44.594;11.368;2022-08-21T04:35:48;23.00;99.90
44271;DHT22;29963;44.594;11.368;2022-08-21T04:38:14;23.00;99.90
44271;DHT22;29963;44.594;11.368;2022-08-21T04:40:40;23.00;99.90
44271;DHT22;29963;44.594;11.368;2022-08-21T04:43:09;23.00;99.90
44271;DHT22;29963;44.594;11.368;2022-08-21T04:45:37;23.00;99.90
44271;DHT22;29963;44.594;11.368;2022-08-21T04:48:06;23.00;99.90
44271;DHT22;29963;44.594;11.368;2022-08-21T04:51:29;22.90;99.90
44271;DHT22;29963;44.594;11.368;2022-08-21T04:53:39;22.90;99.90
44271;DHT22;29963;44.594;11.368;2022-08-21T04:56:31;22.80;99.90
44271;DHT22;29963;44.594;11.368;2022-08-21T04:58:59;22.80;99.90
44271;DHT22;29963;44.594;11.368;2022-08-21T05:01:29;22.80;99.90
44271;DHT22;29963;44.594;11.368;2022-08-21T05:03:58;22.90;99.90
44271;DHT22;29963;44.594;11.368;2022-08-21T05:06:25;22.90;99.90
44271;DHT22;29963;44.594;11.368;2022-08-21T05:08:52;22.80;99.90
44271;DHT22;29963;44.594;11.368;2022-08-21T05:11:19;22.80;99.90
44271;DHT22;29963;44.594;11.368;2022-08-21T05:13:45;22.90;99.90
44271;DHT22;29963;44.594;11.368;2022-08-21T05:16:11;22.90;99.90
44271;DHT22;29963;44.594;11.368;2022-08-21T05:18:37;23.00;99.90
44271;DHT22;29963;44.594;11.368;2022-08-21T05:21:03;23.00;99.90
44271;DHT22;29963;44.594;11.368;2022-08-21T05:23:29;23.10;99.90
44271;DHT22;29963;44.594;11.368;2022-08-21T05:25:55;23.30;99.90
44271;DHT22;29963;44.594;11.368;2022-08-21T05:28:21;23.40;99.90
44271;DHT22;29963;44.594;11.368;2022-08-21T05:30:47;23.40;99.90
44271;DHT22;29963;44.594;11.368;2022-08-21T05:33:13;23.40;99.90
44271;DHT22;29963;44.594;11.368;2022-08-21T05:35:39;23.40;99.90
44271;DHT22;29963;44.594;11.368;2022-08-21T05:38:05;23.40;99.90
44271;DHT22;29963;44.594;11.368;2022-08-21T05:40:31;23.50;99.90
44271;DHT22;29963;44.594;11.368;2022-08-21T05:43:00;23.50;99.90
44271;DHT22;29963;44.594;11.368;2022-08-21T05:45:30;23.40;99.90
44271;DHT22;29963;44.594;11.368;2022-08-21T05:47:56;23.40;99.90
44271;DHT22;29963;44.594;11.368;2022-08-21T05:50:22;23.50;99.90
44271;DHT22;29963;44.594;11.368;2022-08-21T05:52:48;23.60;99.90
44271;DHT22;29963;44.594;11.368;2022-08-21T05:55:14;23.70;99.90
44271;DHT22;29963;44.594;11.368;2022-08-21T05:57:39;23.60;99.90
44271;DHT22;29963;44.594;11.368;2022-08-21T06:00:08;23.70;99.90
44271;DHT22;29963;44.594;11.368;2022-08-21T06:02:35;23.70;99.90
44271;DHT22;29963;44.594;11.368;2022-08-21T06:05:01;23.60;99.90
44271;DHT22;29963;44.594;11.368;2022-08-21T06:07:27;23.50;99.90
44271;DHT22;29963;44.594;11.368;2022-08-21T06:09:54;23.50;99.90
44271;DHT22;29963;44.594;11.368;2022-08-21T06:12:20;23.60;99.90
44271;DHT22;29963;44.594;11.368;2022-08-21T06:14:45;23.60;99.90
44271;DHT22;29963;44.594;11.368;2022-08-21T06:17:12;23.70;99.90
44271;DHT22;29963;44.594;11.368;2022-08-21T06:19:40;23.80;99.90
44271;DHT22;29963;44.594;11.368;2022-08-21T06:22:06;24.00;99.90
44271;DHT22;29963;44.594;11.368;2022-08-21T06:24:32;24.10;99.90
44271;DHT22;29963;44.594;11.368;2022-08-21T06:26:58;24.10;99.90
44271;DHT22;29963;44.594;11.368;2022-08-21T06:29:29;24.20;99.90
44271;DHT22;29963;44.594;11.368;2022-08-21T06:31:54;24.30;99.90
44271;DHT22;29963;44.594;11.368;2022-08-21T06:34:21;24.30;99.90
44271;DHT22;29963;44.594;11.368;2022-08-21T06:36:46;24.40;99.90
44271;DHT22;29963;44.594;11.368;2022-08-21T06:39:12;24.40;99.90
44271;DHT22;29963;44.594;11.368;2022-08-21T06:41:39;24.50;99.90
44271;DHT22;29963;44.594;11.368;2022-08-21T06:44:04;24.50;99.90
44271;DHT22;29963;44.594;11.368;2022-08-21T06:46:30;24.60;99.90
44271;DHT22;29963;44.594;11.368;2022-08-21T06:48:56;24.60;99.90
44271;DHT22;29963;44.594;11.368;2022-08-21T06:51:23;24.60;99.90
44271;DHT22;29963;44.594;11.368;2022-08-21T06:53:50;24.60;99.90
44271;DHT22;29963;44.594;11.368;2022-08-21T06:56:16;24.60;99.90
44271;DHT22;29963;44.594;11.368;2022-08-21T06:58:42;24.60;99.90
44271;DHT22;29963;44.594;11.368;2022-08-21T07:01:08;24.60;99.90
44271;DHT22;29963;44.594;11.368;2022-08-21T07:03:40;24.70;99.90
44271;DHT22;29963;44.594;11.368;2022-08-21T07:06:10;24.70;99.90
44271;DHT22;29963;44.594;11.368;2022-08-21T07:08:37;24.80;99.90
44271;DHT22;29963;44.594;11.368;2022-08-21T07:11:11;24.80;99.90
44271;DHT22;29963;44.594;11.368;2022-08-21T07:13:38;24.80;99.90
44271;DHT22;29963;44.594;11.368;2022-08-21T07:16:04;24.90;99.90
44271;DHT22;29963;44.594;11.368;2022-08-21T07:18:30;24.90;99.90
44271;DHT22;29963;44.594;11.368;2022-08-21T07:20:56;25.00;99.90
44271;DHT22;29963;44.594;11.368;2022-08-21T07:23:29;25.00;99.90
44271;DHT22;29963;44.594;11.368;2022-08-21T07:25:55;25.10;99.90
44271;DHT22;29963;44.594;11.368;2022-08-21T07:28:21;25.10;99.90
44271;DHT22;29963;44.594;11.368;2022-08-21T07:30:51;25.20;99.90
44271;DHT22;29963;44.594;11.368;2022-08-21T07:33:17;25.20;99.90
44271;DHT22;29963;44.594;11.368;2022-08-21T07:35:43;25.40;99.90
44271;DHT22;29963;44.594;11.368;2022-08-21T07:38:09;25.40;99.90
44271;DHT22;29963;44.594;11.368;2022-08-21T07:40:35;25.50;99.90
44271;DHT22;29963;44.594;11.368;2022-08-21T07:43:00;25.40;99.90
44271;DHT22;29963;44.594;11.368;2022-08-21T07:45:26;25.50;99.90
44271;DHT22;29963;44.594;11.368;2022-08-21T07:47:52;25.60;99.90
44271;DHT22;29963;44.594;11.368;2022-08-21T07:50:18;25.70;99.90
44271;DHT22;29963;44.594;11.368;2022-08-21T07:52:44;25.80;99.90
44271;DHT22;29963;44.594;11.368;2022-08-21T07:55:14;25.80;99.90
44271;DHT22;29963;44.594;11.368;2022-08-21T07:57:40;25.80;99.90
44271;DHT22;29963;44.594;11.368;2022-08-21T08:00:09;25.80;99.90
44271;DHT22;29963;44.594;11.368;2022-08-21T08:02:35;25.80;99.90
44271;DHT22;29963;44.594;11.368;2022-08-21T08:05:03;25.80;99.90
44271;DHT22;29963;44.594;11.368;2022-08-21T08:07:29;25.90;99.90
44271;DHT22;29963;44.594;11.368;2022-08-21T08:09:55;26.00;99.90
44271;DHT22;29963;44.594;11.368;2022-08-21T08:12:21;26.00;99.90
44271;DHT22;29963;44.594;11.368;2022-08-21T08:14:46;26.10;99.90
44271;DHT22;29963;44.594;11.368;2022-08-21T08:17:12;26.00;99.90
44271;DHT22;29963;44.594;11.368;2022-08-21T08:19:39;26.10;99.90
44271;DHT22;29963;44.594;11.368;2022-08-21T08:22:16;26.20;99.90
44271;DHT22;29963;44.594;11.368;2022-08-21T08:24:42;26.30;99.90
44271;DHT22;29963;44.594;11.368;2022-08-21T08:27:08;26.40;99.90
44271;DHT22;29963;44.594;11.368;2022-08-21T08:29:34;26.40;99.90
44271;DHT22;29963;44.594;11.368;2022-08-21T08:31:59;26.60;99.90
44271;DHT22;29963;44.594;11.368;2022-08-21T08:34:28;26.70;99.90
44271;DHT22;29963;44.594;11.368;2022-08-21T08:36:53;26.70;99.90
44271;DHT22;29963;44.594;11.368;2022-08-21T08:39:19;26.80;99.90
44271;DHT22;29963;44.594;11.368;2022-08-21T08:41:46;26.90;99.90
44271;DHT22;29963;44.594;11.368;2022-08-21T08:44:13;26.90;99.90
44271;DHT22;29963;44.594;11.368;2022-08-21T08:46:44;27.00;99.90
44271;DHT22;29963;44.594;11.368;2022-08-21T08:49:18;27.10;99.90
44271;DHT22;29963;44.594;11.368;2022-08-21T08:51:56;27.20;99.90
44271;DHT22;29963;44.594;11.368;2022-08-21T08:54:28;27.30;99.90
44271;DHT22;29963;44.594;11.368;2022-08-21T08:57:02;27.30;99.90
44271;DHT22;29963;44.594;11.368;2022-08-21T08:59:38;27.40;99.90
44271;DHT22;29963;44.594;11.368;2022-08-21T09:02:05;27.40;99.90
44271;DHT22;29963;44.594;11.368;2022-08-21T09:04:31;27.40;99.90
44271;DHT22;29963;44.594;11.368;2022-08-21T09:07:16;27.40;99.50
44271;DHT22;29963;44.594;11.368;2022-08-21T09:23:52;27.80;99.50
44271;DHT22;29963;44.594;11.368;2022-08-21T09:26:24;27.90;99.60
44271;DHT22;29963;44.594;11.368;2022-08-21T09:28:57;28.00;99.70
44271;DHT22;29963;44.594;11.368;2022-08-21T09:31:34;28.00;99.50
44271;DHT22;29963;44.594;11.368;2022-08-21T09:34:02;28.10;99.20
44271;DHT22;29963;44.594;11.368;2022-08-21T09:36:43;28.10;98.30
44271;DHT22;29963;44.594;11.368;2022-08-21T09:39:11;28.10;98.70
44271;DHT22;29963;44.594;11.368;2022-08-21T09:41:39;28.20;98.00
44271;DHT22;29963;44.594;11.368;2022-08-21T09:44:06;28.30;98.00
44271;DHT22;29963;44.594;11.368;2022-08-21T09:46:32;28.30;97.70
44271;DHT22;29963;44.594;11.368;2022-08-21T09:49:03;28.40;97.10
44271;DHT22;29963;44.594;11.368;2022-08-21T09:51:32;28.40;97.20
44271;DHT22;29963;44.594;11.368;2022-08-21T09:54:14;28.50;97.50
44271;DHT22;29963;44.594;11.368;2022-08-21T09:59:37;28.70;97.10
44271;DHT22;29963;44.594;11.368;2022-08-21T10:02:32;28.70;97.10
44271;DHT22;29963;44.594;11.368;2022-08-21T10:05:01;28.80;97.10
44271;DHT22;29963;44.594;11.368;2022-08-21T10:07:30;28.80;97.30
44271;DHT22;29963;44.594;11.368;2022-08-21T10:10:36;28.90;96.40
44271;DHT22;29963;44.594;11.368;2022-08-21T10:19:42;28.90;96.50
44271;DHT22;29963;44.594;11.368;2022-08-21T10:30:52;29.30;96.00
44271;DHT22;29963;44.594;11.368;2022-08-21T10:33:44;29.40;96.00
44271;DHT22;29963;44.594;11.368;2022-08-21T10:55:21;29.90;95.40
44271;DHT22;29963;44.594;11.368;2022-08-21T10:57:56;30.00;95.20
44271;DHT22;29963;44.594;11.368;2022-08-21T11:00:30;30.00;94.40
44271;DHT22;29963;44.594;11.368;2022-08-21T11:03:41;30.00;95.00
44271;DHT22;29963;44.594;11.368;2022-08-21T11:06:25;30.00;94.50
44271;DHT22;29963;44.594;11.368;2022-08-21T11:09:03;30.10;94.40
44271;DHT22;29963;44.594;11.368;2022-08-21T11:11:34;30.10;94.10
44271;DHT22;29963;44.594;11.368;2022-08-21T11:14:07;30.20;93.90
44271;DHT22;29963;44.594;11.368;2022-08-21T11:16:53;30.30;93.50
44271;DHT22;29963;44.594;11.368;2022-08-21T11:19:24;30.30;93.80
44271;DHT22;29963;44.594;11.368;2022-08-21T11:22:08;30.40;93.70
44271;DHT22;29963;44.594;11.368;2022-08-21T11:27:46;30.60;92.10
44271;DHT22;29963;44.594;11.368;2022-08-21T11:30:14;30.70;91.70
44271;DHT22;29963;44.594;11.368;2022-08-21T11:45:54;31.00;89.30
44271;DHT22;29963;44.594;11.368;2022-08-21T11:51:24;31.00;86.90
44271;DHT22;29963;44.594;11.368;2022-08-21T11:57:13;31.10;88.80
44271;DHT22;29963;44.594;11.368;2022-08-21T11:59:45;31.20;89.20
44271;DHT22;29963;44.594;11.368;2022-08-21T12:02:21;31.20;90.10
44271;DHT22;29963;44.594;11.368;2022-08-21T12:04:55;31.20;88.50
44271;DHT22;29963;44.594;11.368;2022-08-21T12:07:42;31.20;89.50
44271;DHT22;29963;44.594;11.368;2022-08-21T12:10:15;31.30;88.40
44271;DHT22;29963;44.594;11.368;2022-08-21T12:12:43;31.30;88.10
44271;DHT22;29963;44.594;11.368;2022-08-21T12:18:02;31.40;85.90
44271;DHT22;29963;44.594;11.368;2022-08-21T12:20:36;31.50;84.80
44271;DHT22;29963;44.594;11.368;2022-08-21T12:23:12;31.60;84.00
44271;DHT22;29963;44.594;11.368;2022-08-21T12:28:14;31.70;82.70
44271;DHT22;29963;44.594;11.368;2022-08-21T12:30:45;31.70;83.70
44271;DHT22;29963;44.594;11.368;2022-08-21T12:33:22;31.70;82.00
44271;DHT22;29963;44.594;11.368;2022-08-21T12:35:49;31.70;78.00
44271;DHT22;29963;44.594;11.368;2022-08-21T12:38:27;31.60;79.60
44271;DHT22;29963;44.594;11.368;2022-08-21T12:41:03;31.60;80.70
44271;DHT22;29963;44.594;11.368;2022-08-21T12:43:37;31.70;79.50
44271;DHT22;29963;44.594;11.368;2022-08-21T12:46:15;31.70;80.00
44271;DHT22;29963;44.594;11.368;2022-08-21T12:48:52;31.80;79.80
44271;DHT22;29963;44.594;11.368;2022-08-21T12:51:30;31.90;79.30
44271;DHT22;29963;44.594;11.368;2022-08-21T12:53:58;32.00;77.90
44271;DHT22;29963;44.594;11.368;2022-08-21T12:56:31;32.00;75.20
44271;DHT22;29963;44.594;11.368;2022-08-21T12:59:01;31.90;74.70
44271;DHT22;29963;44.594;11.368;2022-08-21T13:01:48;31.90;76.00
44271;DHT22;29963;44.594;11.368;2022-08-21T13:04:20;31.90;79.10
44271;DHT22;29963;44.594;11.368;2022-08-21T13:06:50;32.00;78.80
44271;DHT22;29963;44.594;11.368;2022-08-21T13:09:20;32.00;78.50
44271;DHT22;29963;44.594;11.368;2022-08-21T13:11:49;32.10;80.00
44271;DHT22;29963;44.594;11.368;2022-08-21T13:14:35;32.20;80.60
44271;DHT22;29963;44.594;11.368;2022-08-21T13:17:04;32.30;80.90
44271;DHT22;29963;44.594;11.368;2022-08-21T13:19:31;32.50;80.00
44271;DHT22;29963;44.594;11.368;2022-08-21T13:21:57;32.60;78.00
44271;DHT22;29963;44.594;11.368;2022-08-21T13:24:29;32.70;76.80
44271;DHT22;29963;44.594;11.368;2022-08-21T13:26:56;32.80;75.70
44271;DHT22;29963;44.594;11.368;2022-08-21T13:29:27;32.80;75.60
44271;DHT22;29963;44.594;11.368;2022-08-21T13:31:55;32.90;74.40
44271;DHT22;29963;44.594;11.368;2022-08-21T13:34:24;32.80;71.60
44271;DHT22;29963;44.594;11.368;2022-08-21T13:36:58;32.80;71.90
44271;DHT22;29963;44.594;11.368;2022-08-21T13:39:24;32.80;72.50
44271;DHT22;29963;44.594;11.368;2022-08-21T13:41:55;32.80;71.10
44271;DHT22;29963;44.594;11.368;2022-08-21T13:46:59;32.70;72.40
44271;DHT22;29963;44.594;11.368;2022-08-21T13:49:38;32.70;74.60
44271;DHT22;29963;44.594;11.368;2022-08-21T13:52:13;32.80;74.00
44271;DHT22;29963;44.594;11.368;2022-08-21T13:54:41;32.80;74.50
44271;DHT22;29963;44.594;11.368;2022-08-21T13:57:29;33.00;74.70
44271;DHT22;29963;44.594;11.368;2022-08-21T14:02:43;33.30;73.40
44271;DHT22;29963;44.594;11.368;2022-08-21T14:05:22;33.50;74.30
44271;DHT22;29963;44.594;11.368;2022-08-21T14:07:51;33.70;73.40
44271;DHT22;29963;44.594;11.368;2022-08-21T14:10:22;33.80;73.30
44271;DHT22;29963;44.594;11.368;2022-08-21T14:12:52;33.90;73.30
44271;DHT22;29963;44.594;11.368;2022-08-21T14:15:24;34.10;73.10
44271;DHT22;29963;44.594;11.368;2022-08-21T14:17:50;34.30;72.30
44271;DHT22;29963;44.594;11.368;2022-08-21T14:20:34;34.40;71.90
44271;DHT22;29963;44.594;11.368;2022-08-21T14:23:00;34.70;72.20
44271;DHT22;29963;44.594;11.368;2022-08-21T14:25:44;34.80;71.60
44271;DHT22;29963;44.594;11.368;2022-08-21T14:29:00;34.90;70.80
44271;DHT22;29963;44.594;11.368;2022-08-21T14:31:21;35.10;70.50
44271;DHT22;29963;44.594;11.368;2022-08-21T14:33:48;35.20;69.70
44271;DHT22;29963;44.594;11.368;2022-08-21T14:36:15;35.30;70.30
44271;DHT22;29963;44.594;11.368;2022-08-21T14:38:40;35.50;70.30
44271;DHT22;29963;44.594;11.368;2022-08-21T14:41:26;35.70;69.20
44271;DHT22;29963;44.594;11.368;2022-08-21T14:43:55;35.70;68.40
44271;DHT22;29963;44.594;11.368;2022-08-21T14:46:28;35.70;66.70
44271;DHT22;29963;44.594;11.368;2022-08-21T14:48:54;35.50;66.70
44271;DHT22;29963;44.594;11.368;2022-08-21T14:51:20;35.30;67.00
44271;DHT22;29963;44.594;11.368;2022-08-21T14:53:46;35.20;70.60
44271;DHT22;29963;44.594;11.368;2022-08-21T14:56:15;35.30;69.00
44271;DHT22;29963;44.594;11.368;2022-08-21T14:58:44;35.50;68.80
44271;DHT22;29963;44.594;11.368;2022-08-21T15:01:12;35.80;67.80
44271;DHT22;29963;44.594;11.368;2022-08-21T15:03:39;36.10;65.40
44271;DHT22;29963;44.594;11.368;2022-08-21T15:06:06;36.30;64.50
44271;DHT22;29963;44.594;11.368;2022-08-21T15:08:32;36.60;62.30
44271;DHT22;29963;44.594;11.368;2022-08-21T15:10:59;36.70;63.00
44271;DHT22;29963;44.594;11.368;2022-08-21T15:13:25;36.50;60.50
44271;DHT22;29963;44.594;11.368;2022-08-21T15:15:52;36.30;61.40
44271;DHT22;29963;44.594;11.368;2022-08-21T15:18:23;36.40;62.50
44271;DHT22;29963;44.594;11.368;2022-08-21T15:20:49;37.10;65.40
44271;DHT22;29963;44.594;11.368;2022-08-21T15:23:16;38.20;62.50
44271;DHT22;29963;44.594;11.368;2022-08-21T15:25:44;39.50;61.20
44271;DHT22;29963;44.594;11.368;2022-08-21T15:28:10;40.80;56.30
44271;DHT22;29963;44.594;11.368;2022-08-21T15:30:37;41.80;53.20
44271;DHT22;29963;44.594;11.368;2022-08-21T15:33:03;42.90;53.10
44271;DHT22;29963;44.594;11.368;2022-08-21T15:35:29;43.90;47.40
44271;DHT22;29963;44.594;11.368;2022-08-21T15:37:54;44.50;46.10
44271;DHT22;29963;44.594;11.368;2022-08-21T15:40:20;45.10;45.60
44271;DHT22;29963;44.594;11.368;2022-08-21T15:42:46;45.70;44.10
44271;DHT22;29963;44.594;11.368;2022-08-21T15:45:12;46.20;42.60
44271;DHT22;29963;44.594;11.368;2022-08-21T15:47:42;46.60;40.80
44271;DHT22;29963;44.594;11.368;2022-08-21T15:50:09;47.00;41.80
44271;DHT22;29963;44.594;11.368;2022-08-21T15:52:36;47.30;39.70
44271;DHT22;29963;44.594;11.368;2022-08-21T15:55:04;47.60;38.80
44271;DHT22;29963;44.594;11.368;2022-08-21T15:57:30;47.80;37.40
44271;DHT22;29963;44.594;11.368;2022-08-21T16:00:04;48.10;37.90
44271;DHT22;29963;44.594;11.368;2022-08-21T16:02:41;48.50;38.00
44271;DHT22;29963;44.594;11.368;2022-08-21T16:05:08;48.80;36.60
44271;DHT22;29963;44.594;11.368;2022-08-21T16:07:36;48.80;34.90
44271;DHT22;29963;44.594;11.368;2022-08-21T16:10:02;48.70;35.30
44271;DHT22;29963;44.594;11.368;2022-08-21T16:12:31;48.80;35.90
44271;DHT22;29963;44.594;11.368;2022-08-21T16:14:58;49.00;34.80
44271;DHT22;29963;44.594;11.368;2022-08-21T16:17:29;49.10;34.90
44271;DHT22;29963;44.594;11.368;2022-08-21T16:19:55;49.30;35.10
44271;DHT22;29963;44.594;11.368;2022-08-21T16:22:21;49.30;33.90
44271;DHT22;29963;44.594;11.368;2022-08-21T16:24:47;49.30;34.10
44271;DHT22;29963;44.594;11.368;2022-08-21T16:27:13;49.30;33.80
44271;DHT22;29963;44.594;11.368;2022-08-21T16:29:39;49.30;34.10
44271;DHT22;29963;44.594;11.368;2022-08-21T16:32:05;49.30;33.80
44271;DHT22;29963;44.594;11.368;2022-08-21T16:34:31;49.30;34.40
44271;DHT22;29963;44.594;11.368;2022-08-21T16:36:58;49.50;32.90
44271;DHT22;29963;44.594;11.368;2022-08-21T16:39:24;49.40;31.60
44271;DHT22;29963;44.594;11.368;2022-08-21T16:41:49;49.30;32.10
44271;DHT22;29963;44.594;11.368;2022-08-21T16:44:17;49.20;32.80
44271;DHT22;29963;44.594;11.368;2022-08-21T16:46:43;49.00;32.40
44271;DHT22;29963;44.594;11.368;2022-08-21T16:49:09;49.00;33.00
44271;DHT22;29963;44.594;11.368;2022-08-21T16:51:36;49.10;33.10
44271;DHT22;29963;44.594;11.368;2022-08-21T16:54:02;49.20;33.00